Nichioh Maru — JD3267 — position and weather

sailwx.info

Track history (hours):
 
Tides and Currents Weather Stations Pressure Air Temp Water Temp Dewpoint Dewpoint Depression Visibility Wind Speed Wind Dir Waves Ship Positions

Nichioh Maru

Last reported at 2016-Dec-02 21:33 UTC. Time now 2016-Dec-02 22:22 UTC.
Position N 35°19' E 139°41'.

Length 170 m; draft 6.5 m.

Type: Cargo ship. MMSI: 431003232.

Date/timePositionNaut miles runAvg speedWind from/ knotsBaromVisibWave heightAir tempDewpointWater temp
2016-Dec-02 21:33N 35°19' E 139°41'1110.6
2016-Dec-02 20:33N 35°09' E 139°46'24415.0
2016-Dec-02 04:14N 34°07' E 134°59'1519.3
2016-Dec-02 03:28N 34°21' E 134°59'1718.8
2016-Dec-02 02:34N 34°34' E 135°14'7 6.0
2016-Dec-02 01:23N 34°41' E 135°13'0 0.0
2016-Dec-02 00:29N 34°41' E 135°13'0 0.0
2016-Dec-01 23:29N 34°41' E 135°13'3 3.4
2016-Dec-01 22:32N 34°38' E 135°16'2 1.7
2016-Dec-01 21:28N 34°37' E 135°17'0 0.0
2016-Dec-01 20:10N 34°37' E 135°17'0 0.0
2016-Dec-01 19:28N 34°37' E 135°17'0 0.0
2016-Dec-01 18:28N 34°37' E 135°17'0 0.0
2016-Dec-01 17:16N 34°37' E 135°17'0 0.1
2016-Dec-01 16:28N 34°37' E 135°17'0 0.1
2016-Dec-01 15:28N 34°37' E 135°17'0 0.0
2016-Dec-01 14:28N 34°37' E 135°17'0 0.0
2016-Dec-01 13:28N 34°37' E 135°17'0 0.0
2016-Dec-01 12:28N 34°37' E 135°17'0 0.0
2016-Dec-01 11:22N 34°37' E 135°17'0 0.0
2016-Dec-01 10:22N 34°37' E 135°17'0 0.0
2016-Dec-01 09:22N 34°37' E 135°17'0 0.0
2016-Dec-01 08:28N 34°37' E 135°17'0 0.0
2016-Dec-01 07:31N 34°37' E 135°17'0 0.0
2016-Dec-01 06:25N 34°37' E 135°17'0 0.0
2016-Dec-01 05:31N 34°37' E 135°17'1010.0
2016-Dec-01 04:33N 34°35' E 135°06'  
2016-Nov-28 03:33N 34°37' E 134°57'1413.8
2016-Nov-28 02:32N 34°37' E 135°14'3 3.4
2016-Nov-28 01:31N 34°41' E 135°13'0 0.0
2016-Nov-28 00:19N 34°41' E 135°13'0 0.0
2016-Nov-27 23:31N 34°41' E 135°13'2 1.8
2016-Nov-27 22:33N 34°40' E 135°15'1312.8
2016-Nov-27 21:33N 34°28' E 135°09'1716.6
2016-Nov-27 20:33N 34°14' E 134°59'1918.0
2016-Nov-27 19:32N 33°55' E 134°60'238 7.4
2016-Nov-26 11:20N 35°01' E 139°37'1215.2
2016-Nov-26 10:34N 35°11' E 139°45'1313.1
2016-Nov-26 09:33N 35°24' E 139°42'7 7.2
2016-Nov-26 08:32N 35°30' E 139°46'0 0.0
2016-Nov-26 07:32N 35°30' E 139°46'0 0.0
2016-Nov-26 06:32N 35°30' E 139°46'0 0.0
2016-Nov-26 05:32N 35°30' E 139°46'0 0.0
2016-Nov-26 04:32N 35°30' E 139°46'0 0.0
2016-Nov-26 03:32N 35°30' E 139°46'6 6.1
2016-Nov-26 02:33N 35°24' E 139°46'8 8.3
2016-Nov-26 01:33N 35°19' E 139°39'0 0.0
2016-Nov-26 00:33N 35°19' E 139°39'0 0.0
2016-Nov-25 23:33N 35°19' E 139°39'0 0.0
2016-Nov-25 22:33N 35°19' E 139°39'0 0.0
2016-Nov-25 21:33N 35°19' E 139°39'0 0.0
2016-Nov-25 20:33N 35°19' E 139°39'0 0.0
2016-Nov-25 19:33N 35°19' E 139°39'0 0.0
2016-Nov-25 18:33N 35°19' E 139°39'0 0.0
2016-Nov-25 17:33N 35°19' E 139°39'0 0.0
2016-Nov-25 16:33N 35°19' E 139°39'0 0.0
2016-Nov-25 15:33N 35°19' E 139°39'0 0.0
2016-Nov-25 14:33N 35°19' E 139°39'0 0.0
2016-Nov-25 13:33N 35°19' E 139°39'0 0.0
2016-Nov-25 12:33N 35°19' E 139°39'0 0.0
2016-Nov-25 11:30N 35°19' E 139°39'0 0.0
2016-Nov-25 10:33N 35°19' E 139°39'0 0.0
2016-Nov-25 09:33N 35°19' E 139°39'0 0.0
2016-Nov-25 08:33N 35°19' E 139°39'0 0.0
2016-Nov-25 07:33N 35°19' E 139°39'0 0.0
2016-Nov-25 06:33N 35°19' E 139°39'0 0.0
2016-Nov-25 05:33N 35°19' E 139°39'0 0.0
2016-Nov-25 04:34N 35°19' E 139°39'7 7.2
2016-Nov-25 03:34N 35°15' E 139°47'24913.5
2016-Nov-24 09:03N 33°57' E 134°59'1118.6
2016-Nov-24 08:27N 34°08' E 134°59'1617.4
2016-Nov-24 07:33N 34°24' E 135°02'1817.7
2016-Nov-24 06:33N 34°37' E 135°16'4 4.3
2016-Nov-24 05:32N 34°41' E 135°13'0 0.0
2016-Nov-24 04:20N 34°41' E 135°13'0 0.0
2016-Nov-24 03:26N 34°41' E 135°13'0 0.0
2016-Nov-24 02:32N 34°41' E 135°13'0 0.5
2016-Nov-24 01:33N 34°41' E 135°14'9 9.5
2016-Nov-24 00:33N 34°35' E 135°05'  
Track history (hours):
 
Tides and Currents Weather Stations Pressure Air Temp Water Temp Dewpoint Dewpoint Depression Visibility Wind Speed Wind Dir Waves Ship Positions

Nichioh Maru

Last reported at 2016-Dec-02 21:33 UTC. Time now 2016-Dec-02 22:22 UTC.
Position N 35°19' E 139°41'.

Length 170 m; draft 6.5 m.

Type: Cargo ship. MMSI: 431003232.

Date/timePositionNaut miles runAvg speedWind from/ knotsBaromVisibWave heightAir tempDewpointWater temp
2016-Dec-02 21:33N 35°19' E 139°41'1110.6
2016-Dec-02 20:33N 35°09' E 139°46'24415.0
2016-Dec-02 04:14N 34°07' E 134°59'1519.3
2016-Dec-02 03:28N 34°21' E 134°59'1718.8
2016-Dec-02 02:34N 34°34' E 135°14'7 6.0
2016-Dec-02 01:23N 34°41' E 135°13'0 0.0
2016-Dec-02 00:29N 34°41' E 135°13'0 0.0
2016-Dec-01 23:29N 34°41' E 135°13'3 3.4
2016-Dec-01 22:32N 34°38' E 135°16'2 1.7
2016-Dec-01 21:28N 34°37' E 135°17'0 0.0
2016-Dec-01 20:10N 34°37' E 135°17'0 0.0
2016-Dec-01 19:28N 34°37' E 135°17'0 0.0
2016-Dec-01 18:28N 34°37' E 135°17'0 0.0
2016-Dec-01 17:16N 34°37' E 135°17'0 0.1
2016-Dec-01 16:28N 34°37' E 135°17'0 0.1
2016-Dec-01 15:28N 34°37' E 135°17'0 0.0
2016-Dec-01 14:28N 34°37' E 135°17'0 0.0
2016-Dec-01 13:28N 34°37' E 135°17'0 0.0
2016-Dec-01 12:28N 34°37' E 135°17'0 0.0
2016-Dec-01 11:22N 34°37' E 135°17'0 0.0
2016-Dec-01 10:22N 34°37' E 135°17'0 0.0
2016-Dec-01 09:22N 34°37' E 135°17'0 0.0
2016-Dec-01 08:28N 34°37' E 135°17'0 0.0
2016-Dec-01 07:31N 34°37' E 135°17'0 0.0
2016-Dec-01 06:25N 34°37' E 135°17'0 0.0
2016-Dec-01 05:31N 34°37' E 135°17'1010.0
2016-Dec-01 04:33N 34°35' E 135°06'  
2016-Nov-28 03:33N 34°37' E 134°57'1413.8
2016-Nov-28 02:32N 34°37' E 135°14'3 3.4
2016-Nov-28 01:31N 34°41' E 135°13'0 0.0
2016-Nov-28 00:19N 34°41' E 135°13'0 0.0
2016-Nov-27 23:31N 34°41' E 135°13'2 1.8
2016-Nov-27 22:33N 34°40' E 135°15'1312.8
2016-Nov-27 21:33N 34°28' E 135°09'1716.6
2016-Nov-27 20:33N 34°14' E 134°59'1918.0
2016-Nov-27 19:32N 33°55' E 134°60'238 7.4
2016-Nov-26 11:20N 35°01' E 139°37'1215.2
2016-Nov-26 10:34N 35°11' E 139°45'1313.1
2016-Nov-26 09:33N 35°24' E 139°42'7 7.2
2016-Nov-26 08:32N 35°30' E 139°46'0 0.0
2016-Nov-26 07:32N 35°30' E 139°46'0 0.0
2016-Nov-26 06:32N 35°30' E 139°46'0 0.0
2016-Nov-26 05:32N 35°30' E 139°46'0 0.0
2016-Nov-26 04:32N 35°30' E 139°46'0 0.0
2016-Nov-26 03:32N 35°30' E 139°46'6 6.1
2016-Nov-26 02:33N 35°24' E 139°46'8 8.3
2016-Nov-26 01:33N 35°19' E 139°39'0 0.0
2016-Nov-26 00:33N 35°19' E 139°39'0 0.0
2016-Nov-25 23:33N 35°19' E 139°39'0 0.0
2016-Nov-25 22:33N 35°19' E 139°39'0 0.0
2016-Nov-25 21:33N 35°19' E 139°39'0 0.0
2016-Nov-25 20:33N 35°19' E 139°39'0 0.0
2016-Nov-25 19:33N 35°19' E 139°39'0 0.0
2016-Nov-25 18:33N 35°19' E 139°39'0 0.0
2016-Nov-25 17:33N 35°19' E 139°39'0 0.0
2016-Nov-25 16:33N 35°19' E 139°39'0 0.0
2016-Nov-25 15:33N 35°19' E 139°39'0 0.0
2016-Nov-25 14:33N 35°19' E 139°39'0 0.0
2016-Nov-25 13:33N 35°19' E 139°39'0 0.0
2016-Nov-25 12:33N 35°19' E 139°39'0 0.0
2016-Nov-25 11:30N 35°19' E 139°39'0 0.0
2016-Nov-25 10:33N 35°19' E 139°39'0 0.0
2016-Nov-25 09:33N 35°19' E 139°39'0 0.0
2016-Nov-25 08:33N 35°19' E 139°39'0 0.0
2016-Nov-25 07:33N 35°19' E 139°39'0 0.0
2016-Nov-25 06:33N 35°19' E 139°39'0 0.0
2016-Nov-25 05:33N 35°19' E 139°39'0 0.0
2016-Nov-25 04:34N 35°19' E 139°39'7 7.2
2016-Nov-25 03:34N 35°15' E 139°47'24913.5
2016-Nov-24 09:03N 33°57' E 134°59'1118.6
2016-Nov-24 08:27N 34°08' E 134°59'1617.4
2016-Nov-24 07:33N 34°24' E 135°02'1817.7
2016-Nov-24 06:33N 34°37' E 135°16'4 4.3
2016-Nov-24 05:32N 34°41' E 135°13'0 0.0
2016-Nov-24 04:20N 34°41' E 135°13'0 0.0
2016-Nov-24 03:26N 34°41' E 135°13'0 0.0
2016-Nov-24 02:32N 34°41' E 135°13'0 0.5
2016-Nov-24 01:33N 34°41' E 135°14'9 9.5
2016-Nov-24 00:33N 34°35' E 135°05'  

Dump ship's entire track history